createdAt,value
2018-12-17T00:00:40.375Z,30.07
2018-12-17T00:05:41.584Z,28.97
2018-12-17T00:10:39.661Z,31.00
2018-12-17T00:15:35.859Z,34.10
2018-12-17T00:20:30.875Z,24.57
2018-12-17T00:25:25.645Z,36.63
2018-12-17T00:30:20.536Z,28.27
2018-12-17T00:35:16.522Z,27.63
2018-12-17T00:40:11.551Z,26.00
2018-12-17T00:45:07.705Z,24.73
2018-12-17T00:50:04.073Z,23.33
2018-12-17T00:54:58.995Z,34.20
2018-12-17T00:59:53.795Z,27.23
2018-12-17T01:04:48.804Z,23.93
2018-12-17T01:09:43.651Z,26.97
2018-12-17T01:14:38.710Z,34.57
2018-12-17T01:19:33.435Z,31.13
2018-12-17T01:24:28.223Z,30.83
2018-12-17T01:29:22.958Z,30.60
2018-12-17T01:34:17.712Z,28.87
2018-12-17T01:39:12.499Z,28.13
2018-12-17T01:44:07.297Z,26.07
2018-12-17T01:49:02.083Z,33.20
2018-12-17T01:53:56.824Z,26.70
2018-12-17T01:58:51.573Z,31.20
2018-12-17T02:03:46.345Z,32.37
2018-12-17T02:08:41.256Z,28.80
2018-12-17T02:13:36.057Z,28.87
2018-12-17T02:18:30.813Z,21.73
2018-12-17T02:23:25.547Z,33.03
2018-12-17T02:28:20.302Z,26.67
2018-12-17T02:33:15.166Z,32.67
2018-12-17T02:38:09.991Z,34.67
2018-12-17T02:43:04.903Z,34.90
2018-12-17T02:47:59.685Z,20.60
2018-12-17T02:52:54.653Z,26.43
2018-12-17T02:57:49.419Z,25.30
2018-12-17T03:02:44.167Z,24.83
2018-12-17T03:07:38.908Z,38.93
2018-12-17T03:12:33.637Z,23.03
2018-12-17T03:17:28.369Z,24.70
2018-12-17T03:22:23.133Z,26.80
2018-12-17T03:27:17.849Z,33.70
2018-12-17T03:32:12.593Z,25.27
2018-12-17T03:37:07.455Z,28.40
2018-12-17T03:42:02.183Z,23.03
2018-12-17T03:46:56.944Z,31.67
2018-12-17T03:51:51.696Z,28.97
2018-12-17T03:56:46.582Z,29.03
2018-12-17T04:01:41.422Z,27.90
2018-12-17T04:06:36.208Z,26.27
2018-12-17T04:11:30.958Z,27.90
2018-12-17T04:16:25.781Z,36.63
2018-12-17T04:21:20.848Z,24.13
2018-12-17T04:26:15.652Z,30.07
2018-12-17T04:31:10.545Z,22.77
2018-12-17T04:36:05.306Z,26.40
2018-12-17T04:41:00.117Z,21.23
2018-12-17T04:45:54.906Z,31.13
2018-12-17T04:50:50.667Z,20.77
2018-12-17T04:55:45.442Z,27.50
2018-12-17T05:00:40.205Z,31.43
2018-12-17T05:05:34.889Z,25.17
2018-12-17T05:10:29.632Z,27.77
2018-12-17T05:15:24.458Z,26.63
2018-12-17T05:20:19.172Z,31.53
2018-12-17T05:25:14.093Z,30.33
2018-12-17T05:30:09.922Z,37.27
2018-12-17T05:35:06.699Z,33.73
2018-12-17T05:40:01.528Z,26.87
2018-12-17T05:44:56.352Z,39.83
2018-12-17T05:49:51.149Z,35.07
2018-12-17T05:54:46.966Z,30.90
2018-12-17T05:59:41.848Z,31.33
2018-12-17T06:04:36.654Z,33.60
2018-12-17T06:09:31.974Z,26.70
2018-12-17T06:14:30.080Z,30.43
2018-12-17T06:19:24.925Z,36.23
2018-12-17T06:24:19.922Z,32.30
2018-12-17T06:29:14.877Z,37.73
2018-12-17T06:34:09.840Z,32.37
2018-12-17T06:39:07.972Z,27.27
2018-12-17T06:44:02.826Z,39.50
2018-12-17T06:48:57.591Z,35.10
2018-12-17T06:53:52.652Z,42.57
2018-12-17T06:58:47.712Z,37.43
2018-12-17T07:03:42.684Z,40.30
2018-12-17T07:08:37.623Z,58.47
2018-12-17T07:13:33.705Z,32.97
2018-12-17T07:18:28.562Z,28.13
2018-12-17T07:23:24.248Z,25.10
2018-12-17T07:28:19.090Z,30.60
2018-12-17T07:33:14.024Z,29.17
2018-12-17T07:38:08.838Z,33.30
2018-12-17T07:43:03.977Z,37.63
2018-12-17T07:48:00.287Z,28.33
2018-12-17T07:52:55.936Z,27.97
2018-12-17T07:57:50.849Z,27.20
2018-12-17T08:02:46.815Z,27.50
2018-12-17T08:07:41.737Z,29.80
2018-12-17T08:12:38.233Z,26.80
2018-12-17T08:17:33.122Z,29.33
2018-12-17T08:22:28.210Z,28.20
2018-12-17T08:27:23.128Z,24.00
2018-12-17T08:32:19.274Z,28.60
2018-12-17T08:37:14.316Z,25.63
2018-12-17T08:42:10.649Z,26.57
2018-12-17T08:47:05.634Z,25.40
2018-12-17T08:52:00.649Z,30.80
2018-12-17T08:56:55.476Z,30.77
2018-12-17T09:01:50.413Z,27.50
2018-12-17T09:06:46.120Z,29.13
2018-12-17T09:11:44.250Z,31.20
2018-12-17T09:16:39.134Z,34.53
2018-12-17T09:21:35.034Z,39.40
2018-12-17T09:26:30.082Z,30.67
2018-12-17T09:31:28.330Z,34.87
2018-12-17T09:36:23.978Z,26.63
2018-12-17T09:41:21.546Z,27.50
2018-12-17T09:46:16.865Z,34.60
2018-12-17T09:51:19.351Z,30.13
2018-12-17T09:56:11.311Z,32.00
2018-12-17T10:01:11.119Z,30.90
2018-12-17T10:06:08.224Z,29.10
2018-12-17T10:11:05.106Z,24.37
2018-12-17T10:16:03.112Z,29.23
2018-12-17T10:21:01.704Z,32.37
2018-12-17T10:26:15.042Z,29.90
2018-12-17T10:36:40.603Z,29.03
2018-12-17T10:41:35.854Z,38.53
2018-12-17T10:46:30.718Z,34.63
2018-12-17T10:51:25.618Z,30.50
2018-12-17T10:56:20.381Z,30.87
2018-12-17T11:01:20.169Z,36.23
2018-12-17T11:06:17.374Z,31.80
2018-12-17T11:11:12.212Z,34.23
2018-12-17T11:16:08.258Z,32.57
2018-12-17T11:21:03.054Z,31.27
2018-12-17T11:25:57.800Z,30.00
2018-12-17T11:30:52.583Z,27.33
2018-12-17T11:35:47.415Z,27.03
2018-12-17T11:40:42.287Z,26.13
2018-12-17T11:45:37.504Z,19.70
2018-12-17T11:50:32.421Z,23.90
2018-12-17T11:55:33.459Z,23.60
2018-12-17T12:00:31.185Z,23.10
2018-12-17T12:05:32.693Z,24.23
2018-12-17T12:10:30.166Z,18.97
2018-12-17T12:15:25.228Z,20.60
2018-12-17T12:20:28.501Z,18.57
2018-12-17T12:25:27.770Z,21.43
2018-12-17T12:30:33.042Z,23.97
2018-12-17T12:35:35.380Z,25.03
2018-12-17T12:40:39.575Z,21.93
2018-12-17T12:45:44.737Z,18.73
2018-12-17T12:50:48.441Z,23.77
2018-12-17T12:55:54.898Z,22.37
2018-12-17T13:01:07.813Z,24.47
2018-12-17T13:11:24.340Z,22.10
2018-12-17T13:16:28.084Z,23.57
2018-12-17T13:21:36.529Z,19.97
2018-12-17T13:27:06.485Z,19.70
2018-12-17T13:32:36.298Z,20.57
2018-12-17T13:38:07.199Z,24.57
2018-12-17T13:43:11.100Z,17.80
2018-12-17T13:48:23.518Z,20.63
2018-12-17T13:53:43.764Z,19.63
2018-12-17T14:04:12.480Z,22.77
2018-12-17T14:09:08.907Z,20.77
2018-12-17T14:14:03.695Z,23.23
2018-12-17T14:19:03.559Z,19.90
2018-12-17T14:23:58.565Z,21.07
2018-12-17T14:28:53.570Z,17.17
2018-12-17T14:33:48.656Z,20.07
2018-12-17T14:38:43.420Z,25.20
2018-12-17T14:43:38.337Z,19.03
2018-12-17T14:48:33.208Z,20.17
2018-12-17T14:53:28.066Z,20.23
2018-12-17T14:58:22.849Z,19.13
2018-12-17T15:03:17.656Z,19.73
2018-12-17T15:08:12.436Z,20.20
2018-12-17T15:13:07.264Z,17.33
2018-12-17T15:18:02.191Z,17.23
2018-12-17T15:22:57.180Z,16.73
2018-12-17T15:27:52.399Z,16.57
2018-12-17T15:32:47.479Z,17.73
2018-12-17T15:37:42.293Z,16.70
2018-12-17T15:42:40.792Z,18.50
2018-12-17T15:47:34.121Z,19.37
2018-12-17T15:52:29.001Z,17.53
2018-12-17T15:57:23.894Z,19.10
2018-12-17T16:02:18.793Z,17.50
2018-12-17T16:07:13.549Z,20.93
2018-12-17T16:12:08.436Z,14.97
2018-12-17T16:17:03.356Z,16.73
2018-12-17T16:21:58.080Z,13.33
2018-12-17T16:26:59.229Z,14.70
2018-12-17T16:31:57.341Z,17.37
2018-12-17T16:36:51.840Z,13.33
2018-12-17T16:41:47.016Z,12.77
2018-12-17T16:46:41.936Z,14.23
2018-12-17T16:51:36.696Z,17.47
2018-12-17T16:56:31.477Z,14.27
2018-12-17T17:01:26.249Z,16.27
2018-12-17T17:06:21.209Z,16.60
2018-12-17T17:11:17.422Z,20.97
2018-12-17T17:16:12.558Z,18.73
2018-12-17T17:21:07.517Z,21.07
2018-12-17T17:26:02.314Z,19.37
2018-12-17T17:30:57.080Z,16.13
2018-12-17T17:35:54.143Z,15.57
2018-12-17T17:40:48.884Z,15.90
2018-12-17T17:45:43.782Z,15.93
2018-12-17T17:50:38.545Z,21.33
2018-12-17T17:55:33.427Z,16.87
2018-12-17T18:00:28.869Z,17.20
2018-12-17T18:05:25.124Z,16.83
2018-12-17T18:10:19.889Z,17.27
2018-12-17T18:15:14.747Z,20.63
2018-12-17T18:20:09.900Z,17.77
2018-12-17T18:25:05.074Z,16.90
2018-12-17T18:29:59.829Z,15.07
2018-12-17T18:34:54.699Z,13.50
2018-12-17T18:39:50.077Z,15.97
2018-12-17T18:44:44.819Z,16.33
2018-12-17T18:49:39.648Z,14.73
2018-12-17T18:54:34.439Z,18.03
2018-12-17T18:59:35.277Z,15.53
2018-12-17T19:04:37.824Z,22.87
2018-12-17T19:09:33.515Z,21.60
2018-12-17T19:14:28.421Z,16.93
2018-12-17T19:19:23.230Z,16.47
2018-12-17T19:24:21.485Z,18.73
2018-12-17T19:29:18.440Z,28.00
2018-12-17T19:39:50.523Z,13.00
2018-12-17T19:44:56.142Z,13.70
2018-12-17T19:49:56.506Z,12.33
2018-12-17T19:55:00.933Z,13.03
2018-12-17T20:00:02.623Z,13.47
2018-12-17T20:04:58.868Z,13.40
2018-12-17T20:09:55.983Z,16.47
2018-12-17T20:14:50.938Z,15.20
2018-12-17T20:19:49.969Z,13.57
2018-12-17T20:24:44.762Z,17.93
2018-12-17T20:29:39.572Z,23.63
2018-12-17T20:34:34.900Z,19.57
2018-12-17T20:39:29.753Z,19.10
2018-12-17T20:44:24.856Z,21.33
2018-12-17T20:49:19.716Z,18.40
2018-12-17T20:54:14.587Z,20.40
2018-12-17T20:59:09.533Z,26.37
2018-12-17T21:04:05.261Z,26.27
2018-12-17T21:09:00.872Z,18.03
2018-12-17T21:13:55.716Z,18.33
2018-12-17T21:18:50.711Z,18.63
2018-12-17T21:23:45.669Z,19.40
2018-12-17T21:28:40.543Z,23.20
2018-12-17T21:33:35.448Z,20.20
2018-12-17T21:38:31.985Z,24.17
2018-12-17T21:43:26.924Z,23.10
2018-12-17T21:48:21.984Z,19.27
2018-12-17T21:53:16.852Z,19.67
2018-12-17T21:58:11.716Z,21.93
2018-12-17T22:03:06.544Z,20.07
2018-12-17T22:08:02.532Z,18.57
2018-12-17T22:12:58.083Z,24.17
2018-12-17T22:17:52.895Z,20.60
2018-12-17T22:22:48.624Z,20.20
2018-12-17T22:27:43.507Z,21.43
2018-12-17T22:32:38.545Z,23.40
2018-12-17T22:37:33.449Z,24.47
2018-12-17T22:42:29.438Z,18.47
2018-12-17T22:47:30.175Z,18.20
2018-12-17T22:52:25.055Z,20.33
2018-12-17T22:57:19.944Z,19.87
2018-12-17T23:02:19.001Z,19.93
2018-12-17T23:07:16.308Z,17.50
2018-12-17T23:12:27.790Z,19.50
2018-12-17T23:17:39.273Z,17.30
2018-12-17T23:22:34.213Z,18.83
2018-12-17T23:27:29.237Z,16.33
2018-12-17T23:32:25.889Z,16.30
2018-12-17T23:37:20.656Z,18.93
2018-12-17T23:47:44.278Z,14.07
2018-12-17T23:52:48.326Z,14.83
2018-12-17T23:58:01.779Z,14.87
